Weather at Isani-Samgori Heliport

Public forecast

Using degrees Celsius for public forecast. Weather courtesy of forecast.io.

Closest aviation weather report (METAR) to Isani-Samgori Heliport

Closest report is Tbilisi International Airport, 3.9 nm (7.3 km) ENE. Retrieved 2021/10/23 13:30 UTC (0 seconds ago):

UGTB 231330Z 13006KT CAVOK 17/07 Q1019 NOSIG

Closest aviation forecast (TAF) to Isani-Samgori Heliport

Closest forecast is Tbilisi International Airport, 3.9 nm (7.3 km) ENE. Retrieved 2021/10/23 12:00 UTC (1 hour ago):

TAF UGTB 231100Z 2312/2412 27006KT CAVOK TX22/2312Z TN08/2402Z TEMPO 2315/2320 27016KT BECMG 2320/2322 32016KT TEMPO 2409/2412 32022G32KT